GLO4336 SBKP-SBCG
Flight info
| Callsign | GLO4336 |
|---|---|
| Flight time | 1h 19m |
| Altitude | 34000 |
| Route | OSUDO2A EGEVA UM415 FIGOS FIGOS2B |
| Aircraft | B738/M-SDE2E3FGHIRWXY/LB1 |
Departure
| Time | 2026-04-30 05:03 |
|---|---|
| Airport | Viracopos International Airport (SBKP) |
Arrival
| Time | 2026-04-30 06:23 |
|---|---|
| Airport | Campo Grande Airport (SBCG) |
| Time | Latitude | Longitude | Altitude | Speed | Heading |
|---|---|---|---|---|---|
| 2026-04-30 05:03 | -23.09647 | -47.32178 | 7012 ft | 272 kts | 275° |
| 2026-04-30 05:03 | -23.09541 | -47.34226 | 7054 ft | 273 kts | 271° |
| 2026-04-30 05:04 | -23.09589 | -47.36306 | 7581 ft | 276 kts | 268° |
| 2026-04-30 05:04 | -23.09685 | -47.38356 | 8477 ft | 275 kts | 268° |
| 2026-04-30 05:04 | -23.09785 | -47.40443 | 9358 ft | 278 kts | 267° |
| 2026-04-30 05:04 | -23.09882 | -47.42557 | 10221 ft | 280 kts | 267° |
| 2026-04-30 05:05 | -23.09978 | -47.44725 | 10704 ft | 298 kts | 267° |
| 2026-04-30 05:05 | -23.10076 | -47.47075 | 10880 ft | 324 kts | 267° |
| 2026-04-30 05:05 | -23.10178 | -47.49595 | 11156 ft | 342 kts | 268° |
| 2026-04-30 05:06 | -23.10383 | -47.54831 | 12527 ft | 349 kts | 268° |
| 2026-04-30 05:06 | -23.10485 | -47.57471 | 13277 ft | 350 kts | 268° |
| 2026-04-30 05:06 | -23.10586 | -47.60124 | 13980 ft | 353 kts | 268° |
| 2026-04-30 05:06 | -23.10687 | -47.62770 | 14583 ft | 356 kts | 268° |
| 2026-04-30 05:07 | -23.10789 | -47.65467 | 15186 ft | 358 kts | 268° |
| 2026-04-30 05:07 | -23.10891 | -47.68186 | 15787 ft | 361 kts | 268° |
| 2026-04-30 05:07 | -23.10993 | -47.70920 | 16375 ft | 364 kts | 268° |
| 2026-04-30 05:07 | -23.11096 | -47.73676 | 16929 ft | 367 kts | 268° |
| 2026-04-30 05:08 | -23.11199 | -47.76461 | 17062 ft | 369 kts | 268° |
| 2026-04-30 05:08 | -23.11302 | -47.79245 | 17078 ft | 369 kts | 268° |
| 2026-04-30 05:08 | -23.11405 | -47.82028 | 17085 ft | 369 kts | 268° |
| 2026-04-30 05:08 | -23.11507 | -47.84813 | 17088 ft | 369 kts | 268° |
| 2026-04-30 05:09 | -23.11608 | -47.87581 | 17187 ft | 374 kts | 268° |
| 2026-04-30 05:09 | -23.11713 | -47.90415 | 17815 ft | 374 kts | 268° |
| 2026-04-30 05:09 | -23.11817 | -47.93243 | 18460 ft | 374 kts | 268° |
| 2026-04-30 05:09 | -23.11921 | -47.96077 | 18945 ft | 376 kts | 268° |
| 2026-04-30 05:10 | -23.12024 | -47.98924 | 19418 ft | 378 kts | 269° |
| 2026-04-30 05:10 | -23.12127 | -48.01754 | 19883 ft | 380 kts | 269° |
| 2026-04-30 05:10 | -23.12231 | -48.04641 | 20362 ft | 382 kts | 269° |
| 2026-04-30 05:10 | -23.12335 | -48.07540 | 20838 ft | 384 kts | 269° |
| 2026-04-30 05:11 | -23.12439 | -48.10446 | 21300 ft | 386 kts | 269° |
| 2026-04-30 05:11 | -23.12542 | -48.13365 | 21758 ft | 388 kts | 269° |
| 2026-04-30 05:11 | -23.12646 | -48.16305 | 22203 ft | 390 kts | 269° |
| 2026-04-30 05:11 | -23.12750 | -48.19259 | 22632 ft | 392 kts | 269° |
| 2026-04-30 05:12 | -23.12854 | -48.22230 | 23058 ft | 394 kts | 269° |
| 2026-04-30 05:12 | -23.12958 | -48.25229 | 23465 ft | 397 kts | 269° |
| 2026-04-30 05:12 | -23.13061 | -48.28195 | 23841 ft | 399 kts | 269° |
| 2026-04-30 05:12 | -23.13165 | -48.31211 | 24196 ft | 400 kts | 269° |
| 2026-04-30 05:13 | -23.13269 | -48.34247 | 24477 ft | 403 kts | 269° |
| 2026-04-30 05:13 | -23.13373 | -48.37309 | 24849 ft | 404 kts | 269° |
| 2026-04-30 05:13 | -23.13476 | -48.40359 | 25207 ft | 405 kts | 269° |
| 2026-04-30 05:13 | -23.13580 | -48.43429 | 25523 ft | 407 kts | 269° |
| 2026-04-30 05:14 | -23.13683 | -48.46512 | 25822 ft | 409 kts | 269° |
| 2026-04-30 05:14 | -23.13785 | -48.49569 | 26121 ft | 411 kts | 269° |
| 2026-04-30 05:14 | -23.13888 | -48.52681 | 26433 ft | 412 kts | 269° |
| 2026-04-30 05:14 | -23.13889 | -48.55804 | 26715 ft | 413 kts | 277° |
| 2026-04-30 05:15 | -23.13250 | -48.58844 | 26995 ft | 414 kts | 288° |
| 2026-04-30 05:15 | -23.12307 | -48.61808 | 27324 ft | 415 kts | 289° |
| 2026-04-30 05:15 | -23.11331 | -48.64771 | 27594 ft | 417 kts | 289° |
| 2026-04-30 05:15 | -23.10361 | -48.67707 | 27850 ft | 419 kts | 289° |
| 2026-04-30 05:16 | -23.09382 | -48.70701 | 28121 ft | 421 kts | 289° |
| 2026-04-30 05:16 | -23.08409 | -48.73706 | 28404 ft | 422 kts | 289° |
| 2026-04-30 05:16 | -23.07441 | -48.76720 | 28682 ft | 424 kts | 289° |
| 2026-04-30 05:16 | -23.06472 | -48.79751 | 28938 ft | 425 kts | 288° |
| 2026-04-30 05:17 | -23.05503 | -48.82788 | 29250 ft | 425 kts | 288° |
| 2026-04-30 05:17 | -23.04534 | -48.85825 | 29650 ft | 423 kts | 288° |
| 2026-04-30 05:17 | -23.03570 | -48.88842 | 30087 ft | 421 kts | 288° |
| 2026-04-30 05:17 | -23.02612 | -48.91842 | 30445 ft | 419 kts | 288° |
| 2026-04-30 05:18 | -23.01668 | -48.94791 | 30748 ft | 419 kts | 288° |
| 2026-04-30 05:18 | -23.00712 | -48.97778 | 31065 ft | 418 kts | 288° |
| 2026-04-30 05:18 | -22.99760 | -49.00750 | 31401 ft | 417 kts | 288° |
| 2026-04-30 05:18 | -22.98805 | -49.03728 | 31726 ft | 416 kts | 288° |
| 2026-04-30 05:19 | -22.97854 | -49.06692 | 32054 ft | 415 kts | 288° |
| 2026-04-30 05:19 | -22.96904 | -49.09652 | 32390 ft | 414 kts | 288° |
| 2026-04-30 05:19 | -22.95967 | -49.12569 | 32724 ft | 413 kts | 288° |
| 2026-04-30 05:19 | -22.95022 | -49.15507 | 33066 ft | 412 kts | 288° |
| 2026-04-30 05:20 | -22.94039 | -49.18434 | 33368 ft | 412 kts | 290° |
| 2026-04-30 05:20 | -22.92966 | -49.21330 | 33651 ft | 412 kts | 291° |
| 2026-04-30 05:20 | -22.91894 | -49.24169 | 33970 ft | 411 kts | 291° |
| 2026-04-30 05:20 | -22.90819 | -49.27051 | 34014 ft | 414 kts | 290° |
| 2026-04-30 05:21 | -22.88809 | -49.32882 | 34030 ft | 410 kts | 287° |
| 2026-04-30 05:21 | -22.87060 | -49.38751 | 34032 ft | 407 kts | 287° |
| 2026-04-30 05:22 | -22.85319 | -49.44540 | 34033 ft | 405 kts | 287° |
| 2026-04-30 05:22 | -22.83501 | -49.50318 | 34034 ft | 404 kts | 289° |
| 2026-04-30 05:23 | -22.81559 | -49.56045 | 34033 ft | 405 kts | 289° |
| 2026-04-30 05:23 | -22.79607 | -49.61797 | 34032 ft | 406 kts | 289° |
| 2026-04-30 05:24 | -22.77664 | -49.67566 | 34028 ft | 407 kts | 289° |
| 2026-04-30 05:24 | -22.75733 | -49.73306 | 34030 ft | 408 kts | 289° |
| 2026-04-30 05:25 | -22.73781 | -49.79104 | 34024 ft | 409 kts | 289° |
| 2026-04-30 05:25 | -22.72151 | -49.83933 | 34026 ft | 410 kts | 289° |
| 2026-04-30 05:26 | -22.69860 | -49.90687 | 34026 ft | 411 kts | 289° |
| 2026-04-30 05:26 | -22.68217 | -49.95525 | 34020 ft | 411 kts | 289° |
| 2026-04-30 05:27 | -22.66237 | -50.01348 | 34030 ft | 411 kts | 289° |
| 2026-04-30 05:27 | -22.64271 | -50.07128 | 34024 ft | 411 kts | 289° |
| 2026-04-30 05:28 | -22.62305 | -50.12940 | 34023 ft | 411 kts | 289° |
| 2026-04-30 05:28 | -22.60362 | -50.18752 | 34019 ft | 410 kts | 289° |
| 2026-04-30 05:29 | -22.58413 | -50.24561 | 34025 ft | 410 kts | 289° |
| 2026-04-30 05:29 | -22.56437 | -50.30347 | 34024 ft | 410 kts | 289° |
| 2026-04-30 05:30 | -22.54441 | -50.36120 | 34024 ft | 409 kts | 289° |
| 2026-04-30 05:30 | -22.52457 | -50.41860 | 34024 ft | 409 kts | 289° |
| 2026-04-30 05:31 | -22.50464 | -50.47628 | 34019 ft | 409 kts | 289° |
| 2026-04-30 05:31 | -22.48470 | -50.53395 | 34020 ft | 409 kts | 289° |
| 2026-04-30 05:32 | -22.46473 | -50.59162 | 34016 ft | 409 kts | 289° |
| 2026-04-30 05:32 | -22.44476 | -50.64924 | 34020 ft | 409 kts | 289° |
| 2026-04-30 05:33 | -22.42476 | -50.70687 | 34017 ft | 409 kts | 289° |
| 2026-04-30 05:33 | -22.40488 | -50.76407 | 34016 ft | 409 kts | 289° |
| 2026-04-30 05:34 | -22.38484 | -50.82166 | 34017 ft | 409 kts | 289° |
| 2026-04-30 05:34 | -22.36480 | -50.87918 | 34022 ft | 409 kts | 289° |
| 2026-04-30 05:35 | -22.34473 | -50.93671 | 34017 ft | 409 kts | 289° |
| 2026-04-30 05:35 | -22.32463 | -50.99425 | 34018 ft | 409 kts | 290° |
| 2026-04-30 05:36 | -22.30452 | -51.05172 | 34017 ft | 409 kts | 290° |
| 2026-04-30 05:36 | -22.28436 | -51.10930 | 34025 ft | 410 kts | 290° |
| 2026-04-30 05:37 | -22.26426 | -51.16660 | 34033 ft | 410 kts | 290° |
| 2026-04-30 05:37 | -22.24403 | -51.22422 | 34035 ft | 411 kts | 290° |
| 2026-04-30 05:38 | -22.22383 | -51.28169 | 34046 ft | 411 kts | 290° |
| 2026-04-30 05:38 | -22.20353 | -51.33936 | 34047 ft | 411 kts | 290° |
| 2026-04-30 05:39 | -22.18330 | -51.39678 | 34047 ft | 411 kts | 290° |
| 2026-04-30 05:39 | -22.16301 | -51.45463 | 34047 ft | 412 kts | 289° |
| 2026-04-30 05:40 | -22.14306 | -51.51276 | 34047 ft | 412 kts | 289° |
| 2026-04-30 05:40 | -22.12319 | -51.57074 | 34040 ft | 412 kts | 289° |
| 2026-04-30 05:41 | -22.10335 | -51.62841 | 34032 ft | 412 kts | 289° |
| 2026-04-30 05:41 | -22.08338 | -51.68637 | 34022 ft | 412 kts | 289° |
| 2026-04-30 05:42 | -22.06337 | -51.74432 | 34017 ft | 412 kts | 289° |
| 2026-04-30 05:42 | -22.04345 | -51.80193 | 34011 ft | 412 kts | 289° |
| 2026-04-30 05:43 | -22.02343 | -51.85976 | 34010 ft | 412 kts | 289° |
| 2026-04-30 05:43 | -22.00339 | -51.91757 | 34006 ft | 412 kts | 289° |
| 2026-04-30 05:44 | -21.98328 | -51.97551 | 34008 ft | 412 kts | 290° |
| 2026-04-30 05:44 | -21.96318 | -52.03336 | 34009 ft | 412 kts | 290° |
| 2026-04-30 05:45 | -21.94318 | -52.09085 | 34010 ft | 412 kts | 290° |
| 2026-04-30 05:45 | -21.92300 | -52.14876 | 34006 ft | 412 kts | 290° |
| 2026-04-30 05:46 | -21.90282 | -52.20665 | 34010 ft | 413 kts | 290° |
| 2026-04-30 05:46 | -21.88258 | -52.26459 | 34006 ft | 413 kts | 290° |
| 2026-04-30 05:47 | -21.86248 | -52.32217 | 34008 ft | 413 kts | 290° |
| 2026-04-30 05:47 | -21.84225 | -52.38015 | 34006 ft | 414 kts | 290° |
| 2026-04-30 05:48 | -21.82196 | -52.43826 | 34008 ft | 414 kts | 290° |
| 2026-04-30 05:48 | -21.80164 | -52.49639 | 34016 ft | 414 kts | 290° |
| 2026-04-30 05:49 | -21.78144 | -52.55410 | 34008 ft | 415 kts | 290° |
| 2026-04-30 05:49 | -21.76104 | -52.61228 | 34006 ft | 415 kts | 290° |
| 2026-04-30 05:50 | -21.74062 | -52.67047 | 34014 ft | 415 kts | 290° |
| 2026-04-30 05:50 | -21.72022 | -52.72855 | 34015 ft | 415 kts | 290° |
| 2026-04-30 05:51 | -21.69977 | -52.78663 | 34007 ft | 415 kts | 290° |
| 2026-04-30 05:51 | -21.67938 | -52.84418 | 34010 ft | 414 kts | 290° |
| 2026-04-30 05:52 | -21.65884 | -52.90205 | 34016 ft | 414 kts | 290° |
| 2026-04-30 05:52 | -21.63830 | -52.95990 | 34016 ft | 413 kts | 290° |
| 2026-04-30 05:53 | -21.61774 | -53.01773 | 34014 ft | 413 kts | 290° |
| 2026-04-30 05:53 | -21.59732 | -53.07512 | 34018 ft | 413 kts | 290° |
| 2026-04-30 05:54 | -21.57676 | -53.13283 | 34020 ft | 413 kts | 290° |
| 2026-04-30 05:54 | -21.55620 | -53.19048 | 34018 ft | 413 kts | 290° |
| 2026-04-30 05:55 | -21.53558 | -53.24821 | 34014 ft | 413 kts | 290° |
| 2026-04-30 05:55 | -21.51505 | -53.30564 | 34021 ft | 414 kts | 290° |
| 2026-04-30 05:56 | -21.49440 | -53.36331 | 34016 ft | 414 kts | 290° |
| 2026-04-30 05:56 | -21.47368 | -53.42114 | 34020 ft | 414 kts | 290° |
| 2026-04-30 05:57 | -21.45227 | -53.47880 | 33770 ft | 419 kts | 296° |
| 2026-04-30 05:57 | -21.43612 | -53.50461 | 33392 ft | 413 kts | 304° |
| 2026-04-30 05:57 | -21.41943 | -53.52921 | 32883 ft | 411 kts | 304° |
| 2026-04-30 05:58 | -21.40277 | -53.55402 | 32425 ft | 407 kts | 303° |
| 2026-04-30 05:58 | -21.38636 | -53.57866 | 31977 ft | 404 kts | 303° |
| 2026-04-30 05:58 | -21.37011 | -53.60318 | 31511 ft | 401 kts | 303° |
| 2026-04-30 05:58 | -21.35402 | -53.62754 | 31075 ft | 399 kts | 303° |
| 2026-04-30 05:59 | -21.33800 | -53.65181 | 30620 ft | 397 kts | 304° |
| 2026-04-30 05:59 | -21.32207 | -53.67593 | 30170 ft | 396 kts | 304° |
| 2026-04-30 05:59 | -21.30615 | -53.70005 | 29655 ft | 394 kts | 304° |
| 2026-04-30 05:59 | -21.29056 | -53.72364 | 29180 ft | 391 kts | 304° |
| 2026-04-30 06:00 | -21.27489 | -53.74734 | 28702 ft | 388 kts | 304° |
| 2026-04-30 06:00 | -21.25934 | -53.77085 | 28253 ft | 385 kts | 304° |
| 2026-04-30 06:00 | -21.24385 | -53.79425 | 27798 ft | 383 kts | 304° |
| 2026-04-30 06:00 | -21.22849 | -53.81745 | 27345 ft | 380 kts | 304° |
| 2026-04-30 06:01 | -21.21325 | -53.84047 | 26912 ft | 378 kts | 304° |
| 2026-04-30 06:01 | -21.19803 | -53.86343 | 26470 ft | 376 kts | 304° |
| 2026-04-30 06:01 | -21.18290 | -53.88626 | 26028 ft | 374 kts | 304° |
| 2026-04-30 06:01 | -21.16783 | -53.90899 | 25580 ft | 373 kts | 304° |
| 2026-04-30 06:02 | -21.15282 | -53.93161 | 25128 ft | 372 kts | 304° |
| 2026-04-30 06:02 | -21.13802 | -53.95391 | 24694 ft | 371 kts | 304° |
| 2026-04-30 06:02 | -21.12304 | -53.97648 | 24252 ft | 370 kts | 304° |
| 2026-04-30 06:02 | -21.10810 | -53.99897 | 23817 ft | 370 kts | 304° |
| 2026-04-30 06:03 | -21.09318 | -54.02143 | 23332 ft | 369 kts | 304° |
| 2026-04-30 06:03 | -21.07833 | -54.04377 | 22862 ft | 367 kts | 304° |
| 2026-04-30 06:03 | -21.06357 | -54.06596 | 22407 ft | 365 kts | 304° |
| 2026-04-30 06:03 | -21.04890 | -54.08801 | 21973 ft | 363 kts | 304° |
| 2026-04-30 06:04 | -21.03426 | -54.11002 | 21559 ft | 360 kts | 304° |
| 2026-04-30 06:04 | -21.01975 | -54.13183 | 21120 ft | 359 kts | 304° |
| 2026-04-30 06:04 | -21.00547 | -54.15328 | 20707 ft | 357 kts | 304° |
| 2026-04-30 06:05 | -20.97669 | -54.19646 | 19847 ft | 355 kts | 304° |
| 2026-04-30 06:05 | -20.96232 | -54.21801 | 19271 ft | 358 kts | 304° |
| 2026-04-30 06:05 | -20.94779 | -54.23979 | 18798 ft | 359 kts | 304° |
| 2026-04-30 06:05 | -20.93326 | -54.26156 | 18341 ft | 359 kts | 305° |
| 2026-04-30 06:06 | -20.91872 | -54.28332 | 17865 ft | 358 kts | 305° |
| 2026-04-30 06:06 | -20.90431 | -54.30489 | 17430 ft | 355 kts | 305° |
| 2026-04-30 06:06 | -20.89050 | -54.32661 | 17005 ft | 352 kts | 301° |
| 2026-04-30 06:06 | -20.87803 | -54.34866 | 16598 ft | 350 kts | 300° |
| 2026-04-30 06:07 | -20.86582 | -54.37112 | 16188 ft | 348 kts | 300° |
| 2026-04-30 06:07 | -20.85371 | -54.39342 | 15792 ft | 346 kts | 300° |
| 2026-04-30 06:07 | -20.84162 | -54.41550 | 15391 ft | 344 kts | 300° |
| 2026-04-30 06:07 | -20.82949 | -54.43748 | 14997 ft | 342 kts | 300° |
| 2026-04-30 06:08 | -20.81740 | -54.45926 | 14603 ft | 340 kts | 300° |
| 2026-04-30 06:08 | -20.80535 | -54.48090 | 14199 ft | 339 kts | 300° |
| 2026-04-30 06:08 | -20.79328 | -54.50254 | 13801 ft | 337 kts | 300° |
| 2026-04-30 06:08 | -20.78127 | -54.52406 | 13368 ft | 336 kts | 300° |
| 2026-04-30 06:09 | -20.76929 | -54.54550 | 12962 ft | 334 kts | 300° |
| 2026-04-30 06:09 | -20.75734 | -54.56688 | 12473 ft | 335 kts | 300° |
| 2026-04-30 06:09 | -20.74555 | -54.58798 | 12076 ft | 333 kts | 300° |
| 2026-04-30 06:09 | -20.73373 | -54.60914 | 11680 ft | 331 kts | 300° |
| 2026-04-30 06:10 | -20.72192 | -54.63026 | 11293 ft | 328 kts | 301° |
| 2026-04-30 06:10 | -20.71024 | -54.65112 | 10909 ft | 326 kts | 301° |
| 2026-04-30 06:10 | -20.69666 | -54.67029 | 10555 ft | 323 kts | 319° |
| 2026-04-30 06:10 | -20.67795 | -54.68235 | 10417 ft | 307 kts | 339° |
| 2026-04-30 06:11 | -20.65747 | -54.68622 | 10279 ft | 293 kts | 359° |
| 2026-04-30 06:11 | -20.63800 | -54.68305 | 10159 ft | 282 kts | 15° |
| 2026-04-30 06:11 | -20.62053 | -54.67464 | 10005 ft | 272 kts | 32° |
| 2026-04-30 06:11 | -20.60586 | -54.66225 | 9725 ft | 266 kts | 39° |
| 2026-04-30 06:12 | -20.59226 | -54.64895 | 9456 ft | 264 kts | 40° |
| 2026-04-30 06:12 | -20.57860 | -54.63541 | 9207 ft | 271 kts | 40° |
| 2026-04-30 06:12 | -20.56453 | -54.62158 | 8937 ft | 279 kts | 40° |
| 2026-04-30 06:12 | -20.55496 | -54.61227 | 8742 ft | 283 kts | 40° |
| 2026-04-30 06:13 | -20.53566 | -54.59361 | 8334 ft | 282 kts | 39° |
| 2026-04-30 06:13 | -20.52111 | -54.57958 | 8050 ft | 281 kts | 40° |
| 2026-04-30 06:13 | -20.51130 | -54.57012 | 7874 ft | 280 kts | 40° |
| 2026-04-30 06:13 | -20.49222 | -54.55176 | 7538 ft | 278 kts | 40° |
| 2026-04-30 06:14 | -20.48273 | -54.54261 | 7362 ft | 276 kts | 40° |
| 2026-04-30 06:14 | -20.46848 | -54.52889 | 7118 ft | 274 kts | 40° |
| 2026-04-30 06:14 | -20.45439 | -54.51532 | 6865 ft | 272 kts | 40° |
| 2026-04-30 06:14 | -20.44039 | -54.50185 | 6614 ft | 269 kts | 40° |
| 2026-04-30 06:15 | -20.42650 | -54.48850 | 6373 ft | 267 kts | 40° |
| 2026-04-30 06:15 | -20.41276 | -54.47529 | 6117 ft | 265 kts | 41° |
| 2026-04-30 06:15 | -20.39928 | -54.46245 | 5854 ft | 260 kts | 40° |
| 2026-04-30 06:15 | -20.38590 | -54.45002 | 5686 ft | 248 kts | 40° |
| 2026-04-30 06:16 | -20.37322 | -54.43817 | 5547 ft | 236 kts | 40° |
| 2026-04-30 06:16 | -20.35968 | -54.42940 | 5296 ft | 227 kts | 9° |
| 2026-04-30 06:16 | -20.34457 | -54.43124 | 5094 ft | 215 kts | 335° |
| 2026-04-30 06:16 | -20.33306 | -54.44024 | 4873 ft | 204 kts | 310° |
| 2026-04-30 06:17 | -20.32638 | -54.45320 | 4639 ft | 199 kts | 286° |
| 2026-04-30 06:17 | -20.32497 | -54.46783 | 4412 ft | 198 kts | 263° |
| 2026-04-30 06:17 | -20.32688 | -54.48203 | 4171 ft | 191 kts | 258° |
| 2026-04-30 06:17 | -20.32913 | -54.49585 | 4043 ft | 189 kts | 257° |
| 2026-04-30 06:18 | -20.33143 | -54.50993 | 3984 ft | 191 kts | 257° |
| 2026-04-30 06:18 | -20.33363 | -54.52372 | 3978 ft | 187 kts | 257° |
| 2026-04-30 06:18 | -20.33595 | -54.53738 | 3982 ft | 191 kts | 253° |
| 2026-04-30 06:18 | -20.34270 | -54.54869 | 3951 ft | 175 kts | 221° |
| 2026-04-30 06:19 | -20.35085 | -54.55820 | 3896 ft | 171 kts | 227° |
| 2026-04-30 06:19 | -20.35889 | -54.56705 | 3808 ft | 161 kts | 219° |
| 2026-04-30 06:19 | -20.36641 | -54.57426 | 3754 ft | 155 kts | 217° |
| 2026-04-30 06:19 | -20.37444 | -54.58194 | 3682 ft | 155 kts | 218° |
| 2026-04-30 06:20 | -20.38261 | -54.58976 | 3638 ft | 158 kts | 217° |
| 2026-04-30 06:20 | -20.39079 | -54.59768 | 3569 ft | 157 kts | 218° |
| 2026-04-30 06:20 | -20.39893 | -54.60551 | 3443 ft | 157 kts | 218° |
| 2026-04-30 06:20 | -20.40694 | -54.61325 | 3329 ft | 156 kts | 217° |
| 2026-04-30 06:21 | -20.41508 | -54.62106 | 3124 ft | 157 kts | 217° |
| 2026-04-30 06:21 | -20.42322 | -54.62890 | 2893 ft | 157 kts | 217° |
| 2026-04-30 06:21 | -20.43123 | -54.63663 | 2697 ft | 153 kts | 216° |
| 2026-04-30 06:21 | -20.43905 | -54.64418 | 2419 ft | 150 kts | 217° |
| 2026-04-30 06:22 | -20.44655 | -54.65171 | 2232 ft | 151 kts | 218° |
| 2026-04-30 06:22 | -20.45455 | -54.65899 | 2106 ft | 153 kts | 212° |
| 2026-04-30 06:22 | -20.46252 | -54.66661 | 1886 ft | 152 kts | 216° |
| 2026-04-30 06:22 | -20.46888 | -54.67280 | 1839 ft | 61 kts | 223° |
| 2026-04-30 06:23 | -20.46969 | -54.67426 | 1837 ft | 15 kts | 302° |
| 2026-04-30 06:23 | -20.46922 | -54.67485 | 1838 ft | 0 kts | 312° |
| 2026-04-30 06:23 | -20.46920 | -54.67487 | 1838 ft | 0 kts | 312° |
| 2026-04-30 06:23 | -20.46918 | -54.67490 | 1838 ft | 1 kts | 312° |
| 2026-04-30 06:24 | -20.46884 | -54.67515 | 1838 ft | 9 kts | 345° |
| 2026-04-30 06:24 | -20.46822 | -54.67488 | 1838 ft | 12 kts | 43° |
| 2026-04-30 06:24 | -20.46736 | -54.67403 | 1838 ft | 14 kts | 41° |
| 2026-04-30 06:24 | -20.46663 | -54.67329 | 1838 ft | 14 kts | 40° |
| 2026-04-30 06:25 | -20.46590 | -54.67261 | 1838 ft | 14 kts | 41° |
| 2026-04-30 06:25 | -20.46520 | -54.67196 | 1838 ft | 13 kts | 41° |
| 2026-04-30 06:25 | -20.46456 | -54.67129 | 1838 ft | 13 kts | 43° |
| 2026-04-30 06:25 | -20.46377 | -54.67094 | 1838 ft | 12 kts | 0° |
| 2026-04-30 06:26 | -20.46292 | -54.67099 | 1838 ft | 12 kts | 353° |
| 2026-04-30 06:26 | -20.46211 | -54.67109 | 1838 ft | 12 kts | 354° |
| 2026-04-30 06:26 | -20.46131 | -54.67118 | 1838 ft | 11 kts | 354° |
| 2026-04-30 06:26 | -20.46053 | -54.67126 | 1838 ft | 6 kts | 356° |
| 2026-04-30 06:27 | -20.46052 | -54.67126 | 1838 ft | 0 kts | 356° |
| 2026-04-30 06:27 | -20.46030 | -54.67128 | 1838 ft | 4 kts | 356° |
| 2026-04-30 06:27 | -20.45999 | -54.67131 | 1838 ft | 7 kts | 352° |
| 2026-04-30 06:28 | -20.45933 | -54.67139 | 1838 ft | 10 kts | 355° |
| 2026-04-30 06:28 | -20.45872 | -54.67115 | 1838 ft | 10 kts | 62° |
| 2026-04-30 06:28 | -20.45852 | -54.67052 | 1838 ft | 0 kts | 76° |
| 2026-04-30 06:29 | -20.45849 | -54.67015 | 1838 ft | 11 kts | 90° |
| 2026-04-30 06:29 | -20.45848 | -54.66932 | 1838 ft | 11 kts | 88° |
| 2026-04-30 06:29 | -20.45841 | -54.66848 | 1838 ft | 12 kts | 83° |
| 2026-04-30 06:30 | -20.45833 | -54.66786 | 1838 ft | 4 kts | 58° |
| 2026-04-30 06:30 | -20.45808 | -54.66778 | 1838 ft | 4 kts | 3° |
| 2026-04-30 06:30 | -20.45784 | -54.66780 | 1838 ft | 0 kts | 354° |